Archival Weather

Norman Y Mineta San Jose Intl

San Jose, California (KSJC)

Report from: Wednesday, April 3, 2024 12:53 PM PDT
Current time: Tuesday, May 21, 2024 8:38 AM PDT

Current weather – Weather history – Daily summaries
Weather forecast

Temperature17.8°C (64.0°F)
Dew point10.0°C (50.0°F)
Winds 7 kts (3.6 m/s, 8.1 mph) Northwest (320°)
Visibility10 mi. (16.1 km)
Clouds Few clouds 1,600 ft. (488 m)
Few clouds 2,800 ft. (853 m)
Few clouds 8,000 ft. (2,438 m)
Altimeter30.14 in.Hg (1021 mB)
Relative humidity60 %
Density altitude256 ft. (78 m)
Sea-level pressure102.1 kPa (1021 mB, 30.14 in.Hg)
Remarks Automated weather observing station with precipitation discriminator
Flight conditions Visual Meteorological Conditions
Raw dataKSJC 031953Z 32007KT 10SM FEW016 FEW028 FEW080 18/10 A3014 RMK AO2 SLP206 T01780100
An error has occurred. This application may no longer respond until reloaded. Reload 🗙